Time;durP1;ratioP1;P1;durP2;ratioP2;P2;SDS_P1;SDS_P2;PMS_P1;PMS_P2;Temp;Humidity;BMP_temperature;BMP_pressure;BME280_temperature;BME280_humidity;BME280_pressure;Samples;Min_cycle;Max_cycle;Signal;HPM_P1;HPM_P2
2023/08/06 00:00:28;;;;;;;2.15;1.95;;;;;;;13.97;100.00;95143.94;5003099;28;24801;-76
2023/08/06 00:02:55;;;;;;;7.32;2.08;;;;;;;13.75;100.00;95139.75;5010836;28;24441;-76
2023/08/06 00:05:21;;;;;;;3.80;1.50;;;;;;;13.69;100.00;95142.91;5007313;28;24464;-76
2023/08/06 00:07:48;;;;;;;2.10;1.50;;;;;;;13.56;100.00;95143.09;5010573;28;24441;-76
2023/08/06 00:10:15;;;;;;;2.00;1.42;;;;;;;13.45;100.00;95145.78;5008762;28;24443;-77
2023/08/06 00:12:42;;;;;;;2.13;1.50;;;;;;;13.43;100.00;95142.50;5009922;28;24452;-76
2023/08/06 00:15:10;;;;;;;3.33;1.63;;;;;;;13.39;100.00;95139.34;5008052;28;24797;-76
2023/08/06 00:17:37;;;;;;;2.42;1.40;;;;;;;13.50;100.00;95138.44;5013033;28;24439;-77
2023/08/06 00:20:06;;;;;;;3.78;1.50;;;;;;;13.50;100.00;95143.63;5004842;28;24491;-76
2023/08/06 00:22:32;;;;;;;2.97;1.63;;;;;;;13.45;100.00;95137.97;5012665;28;25002;-76
2023/08/06 00:24:59;;;;;;;5.27;1.57;;;;;;;13.29;100.00;95130.66;5006003;28;24560;-76
2023/08/06 00:27:25;;;;;;;2.30;1.50;;;;;;;13.24;100.00;95125.84;5012721;28;24455;-76
2023/08/06 00:29:53;;;;;;;2.45;1.52;;;;;;;13.09;100.00;95129.69;5011054;28;24440;-76
2023/08/06 00:32:20;;;;;;;4.90;1.40;;;;;;;13.04;100.00;95119.66;5012593;28;24443;-76
2023/08/06 00:34:46;;;;;;;2.05;1.50;;;;;;;13.06;100.00;95125.56;5008265;28;25054;-77
2023/08/06 00:37:13;;;;;;;2.05;1.60;;;;;;;13.12;100.00;95123.38;5002308;28;24990;-76
2023/08/06 00:39:39;;;;;;;1.98;1.33;;;;;;;13.17;100.00;95123.84;5001091;28;25011;-76
2023/08/06 00:42:06;;;;;;;3.40;1.73;;;;;;;13.21;100.00;95117.44;5006592;28;24443;-76
2023/08/06 00:44:32;;;;;;;2.47;1.50;;;;;;;13.22;100.00;95114.69;5009735;28;24457;-76
2023/08/06 00:47:00;;;;;;;1.90;1.40;;;;;;;13.21;100.00;95113.06;5008774;28;24464;-76
2023/08/06 00:49:26;;;;;;;2.00;1.80;;;;;;;13.08;100.00;95109.81;5006009;28;24436;-76
2023/08/06 00:51:53;;;;;;;5.28;2.00;;;;;;;13.03;100.00;95099.00;5010948;28;24432;-76
2023/08/06 00:54:19;;;;;;;2.10;1.80;;;;;;;13.00;100.00;95096.63;5002938;28;25014;-77
2023/08/06 00:56:47;;;;;;;2.95;1.70;;;;;;;12.96;100.00;95090.06;5011705;28;24448;-76
2023/08/06 00:59:15;;;;;;;2.83;1.58;;;;;;;12.96;100.00;95082.25;5012251;28;24800;-76
2023/08/06 01:01:41;;;;;;;3.45;1.63;;;;;;;13.05;100.00;95081.47;5012113;28;24526;-76
2023/08/06 01:04:09;;;;;;;2.00;1.60;;;;;;;13.11;100.00;95078.38;5007897;28;24447;-76
2023/08/06 01:06:43;;;;;;;4.55;1.95;;;;;;;13.07;100.00;95074.38;5002466;28;24456;-76
2023/08/06 01:09:31;;;;;;;5.18;1.70;;;;;;;12.96;100.00;95080.47;5008833;28;24432;-76
2023/08/06 01:12:05;;;;;;;1.30;1.20;;;;;;;13.03;100.00;95086.81;5002285;28;24448;-76
2023/08/06 01:14:38;;;;;;;15.95;1.88;;;;;;;12.89;100.00;95081.94;5010693;28;25042;-76
2023/08/06 01:17:05;;;;;;;21.65;1.50;;;;;;;12.46;100.00;95092.41;5011577;28;24447;-76
2023/08/06 01:19:33;;;;;;;10.85;1.70;;;;;;;12.28;100.00;95092.16;5011721;28;24440;-76
2023/08/06 01:22:01;;;;;;;1.50;1.40;;;;;;;12.49;100.00;95084.38;5008214;28;24523;-76
2023/08/06 01:24:27;;;;;;;2.00;1.40;;;;;;;12.63;100.00;95062.47;5005236;28;24440;-76
2023/08/06 01:27:03;;;;;;;4.18;1.83;;;;;;;12.78;100.00;95064.63;5010741;28;24999;-77
2023/08/06 01:29:35;;;;;;;1.60;1.30;;;;;;;12.73;100.00;95063.38;5011532;28;24554;-76
2023/08/06 01:32:02;;;;;;;1.90;1.40;;;;;;;12.73;100.00;95072.00;5005826;28;24449;-77
2023/08/06 01:34:33;;;;;;;2.30;1.70;;;;;;;12.63;100.00;95070.28;5003121;28;24508;-76
2023/08/06 01:37:02;;;;;;;2.70;1.50;;;;;;;12.63;100.00;95071.09;5007652;28;24444;-76
2023/08/06 01:39:28;;;;;;;1.85;1.40;;;;;;;12.71;100.00;95065.25;5001472;28;24432;-76
2023/08/06 01:41:55;;;;;;;2.00;1.40;;;;;;;12.75;100.00;95070.06;5008117;28;24455;-76
2023/08/06 01:44:21;;;;;;;2.40;1.50;;;;;;;12.78;100.00;95063.81;5010262;28;24440;-76
2023/08/06 01:46:48;;;;;;;2.38;1.40;;;;;;;12.76;100.00;95071.75;5002240;28;24985;-76
2023/08/06 01:49:14;;;;;;;2.13;1.60;;;;;;;12.70;100.00;95067.03;5005837;28;25202;-76
2023/08/06 01:51:41;;;;;;;5.05;1.40;;;;;;;12.70;100.00;95056.66;5003381;28;25019;-76
2023/08/06 01:54:08;;;;;;;1.90;1.13;;;;;;;12.56;100.00;95067.34;5002116;28;24805;-76
2023/08/06 01:56:35;;;;;;;2.35;1.48;;;;;;;12.68;100.00;95061.16;5011441;28;24441;-76
2023/08/06 01:59:01;;;;;;;2.30;1.40;;;;;;;12.73;100.00;95061.59;5008693;28;24836;-77
2023/08/06 02:01:28;;;;;;;2.20;1.40;;;;;;;12.75;100.00;95062.28;5004775;28;24432;-76
2023/08/06 02:03:54;;;;;;;2.33;1.42;;;;;;;12.80;100.00;95056.72;5010084;28;24438;-77
2023/08/06 02:06:21;;;;;;;2.30;1.58;;;;;;;12.80;100.00;95044.53;5008565;28;24467;-76
2023/08/06 02:08:47;;;;;;;1.77;1.42;;;;;;;12.77;100.00;95050.00;5009660;28;24458;-76
2023/08/06 02:11:15;;;;;;;1.63;1.40;;;;;;;12.71;100.00;95047.06;5010395;28;24836;-77
2023/08/06 02:13:41;;;;;;;7.10;1.65;;;;;;;12.53;100.00;95037.28;5010580;28;24811;-76
2023/08/06 02:16:09;;;;;;;2.73;1.40;;;;;;;12.43;100.00;95032.94;5007933;28;24983;-77
2023/08/06 02:18:35;;;;;;;2.33;1.77;;;;;;;12.33;100.00;95025.06;5007308;28;24499;-76
2023/08/06 02:21:02;;;;;;;1.95;1.50;;;;;;;12.36;100.00;95027.44;5001059;28;24455;-76
2023/08/06 02:23:28;;;;;;;1.70;1.60;;;;;;;12.34;100.00;95019.75;5008471;28;24440;-76
2023/08/06 02:25:59;;;;;;;2.83;1.60;;;;;;;12.38;100.00;95022.09;5010633;28;24432;-76
2023/08/06 02:28:27;;;;;;;2.25;1.42;;;;;;;12.40;100.00;95021.03;5010567;28;24472;-76
2023/08/06 02:30:54;;;;;;;3.17;1.80;;;;;;;12.24;100.00;95018.06;5010317;28;24440;-76
2023/08/06 02:33:20;;;;;;;1.90;1.52;;;;;;;12.22;100.00;95017.34;5005159;28;24444;-76
2023/08/06 02:35:47;;;;;;;2.60;1.60;;;;;;;12.30;100.00;95013.16;5006770;28;24451;-76
2023/08/06 02:38:13;;;;;;;1.73;1.40;;;;;;;12.43;100.00;95009.56;5008864;28;24432;-76
2023/08/06 02:40:44;;;;;;;3.83;1.65;;;;;;;12.52;100.00;95012.22;5010302;28;24437;-76
2023/08/06 02:43:10;;;;;;;2.60;1.67;;;;;;;12.69;100.00;95002.22;5002296;28;24494;-77
2023/08/06 02:45:38;;;;;;;2.67;1.63;;;;;;;12.78;100.00;94994.47;5006575;28;24433;-76
2023/08/06 02:48:05;;;;;;;2.60;1.90;;;;;;;12.72;100.00;95009.75;5009573;28;24456;-76
2023/08/06 02:50:31;;;;;;;5.65;1.92;;;;;;;12.71;100.00;94995.94;5004302;28;24667;-77
2023/08/06 02:52:58;;;;;;;2.88;1.85;;;;;;;12.74;100.00;95006.06;5003263;28;24443;-76
2023/08/06 02:55:24;;;;;;;3.28;1.70;;;;;;;12.78;100.00;94997.06;5004304;28;24452;-76
2023/08/06 02:57:51;;;;;;;2.07;1.60;;;;;;;12.77;100.00;94986.81;5009758;28;24444;-76
2023/08/06 03:00:17;;;;;;;2.33;1.60;;;;;;;12.82;100.00;94982.03;5009975;28;24984;-76
2023/08/06 03:02:45;;;;;;;2.72;1.60;;;;;;;12.72;100.00;94974.22;5007523;28;24451;-76
2023/08/06 03:05:11;;;;;;;2.67;1.73;;;;;;;12.61;100.00;94971.69;4999460;28;24429;-76
2023/08/06 03:07:38;;;;;;;2.75;1.75;;;;;;;12.50;100.00;94966.56;5004640;28;24456;-76
2023/08/06 03:10:05;;;;;;;6.00;2.20;;;;;;;12.46;100.00;94960.81;5009208;28;24800;-76
2023/08/06 03:12:31;;;;;;;2.63;1.70;;;;;;;12.50;100.00;94972.59;5007465;28;24987;-76
2023/08/06 03:14:58;;;;;;;2.90;1.67;;;;;;;12.39;100.00;94980.44;5002049;28;24447;-76
2023/08/06 03:17:24;;;;;;;2.47;1.80;;;;;;;12.38;100.00;94968.38;5003577;28;24439;-75
2023/08/06 03:19:52;;;;;;;3.25;1.50;;;;;;;12.35;100.00;94977.28;5005851;28;24440;-76
2023/08/06 03:22:19;;;;;;;3.78;1.50;;;;;;;12.35;100.00;94966.88;5004038;28;24436;-76
2023/08/06 03:24:45;;;;;;;4.38;2.03;;;;;;;12.44;100.00;94962.69;5009298;28;24440;-76
2023/08/06 03:27:11;;;;;;;3.00;1.75;;;;;;;12.43;100.00;94970.63;5009463;28;24455;-76
2023/08/06 03:29:38;;;;;;;6.30;2.20;;;;;;;12.46;100.00;94959.97;5008986;28;24447;-76
2023/08/06 03:32:05;;;;;;;2.70;1.75;;;;;;;12.52;100.00;94962.88;5008510;28;24448;-77
2023/08/06 03:34:31;;;;;;;1.90;1.42;;;;;;;12.50;100.00;94963.97;5008643;28;24441;-76
2023/08/06 03:36:59;;;;;;;4.53;1.50;;;;;;;12.54;100.00;94968.78;5008264;28;24428;-76
2023/08/06 03:39:25;;;;;;;5.78;1.80;;;;;;;12.54;100.00;94966.19;4999893;28;24452;-76
2023/08/06 03:41:52;;;;;;;2.47;1.52;;;;;;;12.65;100.00;94954.91;5000002;28;24464;-77
2023/08/06 03:44:18;;;;;;;2.20;1.60;;;;;;;12.67;100.00;94958.16;5002160;28;24447;-76
2023/08/06 03:46:45;;;;;;;3.05;1.60;;;;;;;12.65;100.00;94964.47;5005305;28;24467;-76
2023/08/06 03:49:11;;;;;;;5.53;1.73;;;;;;;12.65;100.00;94970.47;5001209;28;24463;-76
2023/08/06 03:51:38;;;;;;;2.78;1.60;;;;;;;12.77;100.00;94979.03;5001180;28;24467;-76
2023/08/06 03:54:05;;;;;;;3.65;1.63;;;;;;;12.78;100.00;94986.66;5004136;28;24456;-76
2023/08/06 03:56:32;;;;;;;5.63;1.58;;;;;;;12.85;100.00;94984.38;5008934;28;24439;-76
2023/08/06 03:58:58;;;;;;;2.77;1.60;;;;;;;12.80;100.00;94979.59;5001131;28;24436;-76
2023/08/06 04:01:25;;;;;;;3.28;1.48;;;;;;;12.83;100.00;94983.72;5003524;28;24766;-76
2023/08/06 04:03:51;;;;;;;2.38;1.45;;;;;;;12.73;100.00;94986.25;4998008;28;24456;-76
2023/08/06 04:06:17;;;;;;;3.10;1.70;;;;;;;12.66;100.00;94989.50;5008668;28;24516;-76
2023/08/06 04:08:44;;;;;;;3.10;1.50;;;;;;;12.67;100.00;94989.34;5001792;28;24444;-76
2023/08/06 04:11:13;;;;;;;2.88;1.40;;;;;;;12.72;100.00;94988.97;5002274;28;24472;-76
2023/08/06 04:13:39;;;;;;;1.73;1.30;;;;;;;12.83;100.00;94989.72;4997382;28;24540;-76
2023/08/06 04:16:06;;;;;;;2.22;1.23;;;;;;;12.90;100.00;94986.59;5003809;28;24963;-76
2023/08/06 04:18:32;;;;;;;2.25;1.50;;;;;;;13.03;100.00;94979.41;5008609;28;24467;-76
2023/08/06 04:20:59;;;;;;;3.30;1.50;;;;;;;12.95;100.00;94985.25;5006672;28;24445;-76
2023/08/06 04:23:25;;;;;;;2.33;1.20;;;;;;;12.91;100.00;94990.84;5007608;28;24447;-76
2023/08/06 04:25:52;;;;;;;1.80;1.10;;;;;;;12.93;100.00;94988.94;5000265;28;24452;-76
2023/08/06 04:28:20;;;;;;;2.20;1.00;;;;;;;12.91;100.00;94991.69;5008433;28;24460;-76
2023/08/06 04:30:46;;;;;;;2.92;1.08;;;;;;;12.86;100.00;94990.41;5008288;28;24443;-75
2023/08/06 04:33:13;;;;;;;3.22;1.10;;;;;;;12.86;100.00;94983.44;5004674;28;24440;-75
2023/08/06 04:35:39;;;;;;;1.93;1.17;;;;;;;12.89;100.00;94984.94;5009377;28;24444;-75
2023/08/06 04:38:06;;;;;;;1.52;1.10;;;;;;;12.85;100.00;94979.19;5011708;28;24436;-75
2023/08/06 04:40:34;;;;;;;2.40;1.10;;;;;;;12.87;100.00;94989.44;5010458;28;24448;-76
2023/08/06 04:43:00;;;;;;;1.92;0.88;;;;;;;12.86;100.00;94990.41;5009696;28;24443;-75
2023/08/06 04:45:28;;;;;;;1.57;0.70;;;;;;;12.88;100.00;94983.31;5009587;28;24486;-77
2023/08/06 04:47:55;;;;;;;1.75;0.90;;;;;;;12.87;100.00;94982.50;5011924;28;24448;-76
2023/08/06 04:50:21;;;;;;;1.47;0.70;;;;;;;12.78;100.00;94985.84;5010159;28;24440;-75
2023/08/06 04:52:47;;;;;;;1.35;0.68;;;;;;;12.76;100.00;94983.41;5009802;28;24459;-75
2023/08/06 04:55:14;;;;;;;1.45;0.75;;;;;;;12.88;100.00;94983.31;5010180;28;25025;-75
2023/08/06 04:57:40;;;;;;;1.30;0.77;;;;;;;12.90;100.00;94984.00;5011833;28;24439;-76
2023/08/06 05:00:08;;;;;;;2.15;1.17;;;;;;;12.89;100.00;94980.56;5006439;28;24425;-76
2023/08/06 05:02:38;;;;;;;1.70;0.85;;;;;;;12.89;100.00;94977.97;5009909;28;24439;-76
2023/08/06 05:05:05;;;;;;;1.48;0.77;;;;;;;12.87;100.00;94989.44;5010642;28;24452;-76
2023/08/06 05:07:31;;;;;;;2.00;0.80;;;;;;;12.79;100.00;94985.75;5005176;28;24462;-76
2023/08/06 05:09:58;;;;;;;1.38;0.60;;;;;;;12.86;100.00;94985.22;5009383;28;24444;-76
2023/08/06 05:12:24;;;;;;;2.63;0.63;;;;;;;12.82;100.00;94987.25;5005491;28;24471;-76
2023/08/06 05:14:51;;;;;;;1.48;0.60;;;;;;;12.83;100.00;94981.13;5011112;28;24452;-78
2023/08/06 05:17:17;;;;;;;2.30;0.90;;;;;;;12.90;100.00;94986.59;5007108;28;24452;-75
2023/08/06 05:19:45;;;;;;;1.85;0.77;;;;;;;12.85;100.00;94986.97;5007770;28;24436;-76
2023/08/06 05:22:11;;;;;;;1.00;0.55;;;;;;;12.93;100.00;94987.16;5008912;28;24441;-76
2023/08/06 05:24:38;;;;;;;1.48;0.57;;;;;;;12.95;100.00;94984.44;5003343;28;24426;-75
2023/08/06 05:27:05;;;;;;;1.17;0.52;;;;;;;12.90;100.00;94995.22;5003242;28;24483;-75
2023/08/06 05:29:32;;;;;;;1.10;0.60;;;;;;;12.88;100.00;94988.50;5009484;28;25002;-75
2023/08/06 05:31:58;;;;;;;1.03;0.53;;;;;;;12.84;100.00;94986.16;5011148;28;24505;-76
2023/08/06 05:34:24;;;;;;;1.33;0.60;;;;;;;12.80;100.00;94994.34;5007376;28;24444;-75
2023/08/06 05:36:52;;;;;;;1.45;0.60;;;;;;;12.77;100.00;94997.22;5010216;28;24451;-76
2023/08/06 05:39:19;;;;;;;1.48;0.73;;;;;;;12.74;100.00;94995.69;5007504;28;25042;-76
2023/08/06 05:41:45;;;;;;;1.77;0.60;;;;;;;12.74;100.00;95006.06;5002633;28;25004;-75
2023/08/06 05:44:12;;;;;;;2.65;0.85;;;;;;;12.73;100.00;94995.81;5008794;28;24433;-76
2023/08/06 05:46:38;;;;;;;2.17;0.63;;;;;;;12.80;100.00;95002.97;5009035;28;24968;-76
2023/08/06 05:49:05;;;;;;;1.42;0.80;;;;;;;12.78;100.00;94999.66;5007191;28;25012;-76
2023/08/06 05:51:31;;;;;;;3.65;0.70;;;;;;;12.76;100.00;94998.16;5003779;28;24440;-75
2023/08/06 05:53:59;;;;;;;1.38;0.60;;;;;;;12.80;100.00;94996.97;5008334;28;24860;-76
2023/08/06 05:56:25;;;;;;;2.53;0.55;;;;;;;12.93;100.00;94996.72;5009436;28;24475;-75
2023/08/06 05:58:53;;;;;;;1.33;0.60;;;;;;;12.96;100.00;95001.69;5010854;28;24427;-76
2023/08/06 06:01:19;;;;;;;4.30;0.80;;;;;;;12.95;100.00;95005.25;5008091;28;24536;-75
2023/08/06 06:03:46;;;;;;;1.90;0.65;;;;;;;12.89;100.00;95003.16;5010167;28;24467;-75
2023/08/06 06:06:12;;;;;;;2.30;0.60;;;;;;;12.83;100.00;95013.13;5004318;28;24847;-76
2023/08/06 06:08:39;;;;;;;2.00;0.60;;;;;;;12.88;100.00;95007.53;5000387;28;24460;-75
2023/08/06 06:11:06;;;;;;;0.90;0.40;;;;;;;12.77;100.00;95003.22;5005928;28;24447;-76
2023/08/06 06:13:33;;;;;;;2.28;0.47;;;;;;;12.78;100.00;95007.47;5010344;28;24451;-76
2023/08/06 06:15:59;;;;;;;1.30;0.40;;;;;;;12.73;100.00;95003.63;5010441;28;24433;-76
2023/08/06 06:18:26;;;;;;;0.70;0.40;;;;;;;12.78;100.00;95007.47;5006783;28;24432;-76
2023/08/06 06:20:52;;;;;;;0.77;0.30;;;;;;;12.83;100.00;95005.31;5001818;28;24436;-76
2023/08/06 06:23:19;;;;;;;0.90;0.32;;;;;;;12.83;100.00;95010.50;5010117;28;24444;-76
2023/08/06 06:25:48;;;;;;;2.97;0.70;;;;;;;12.93;100.00;95017.53;5010442;28;24448;-77
2023/08/06 06:28:16;;;;;;;1.15;0.32;;;;;;;12.99;100.00;95027.41;5004460;28;24452;-76
2023/08/06 06:30:43;;;;;;;1.90;0.40;;;;;;;12.96;100.00;95027.66;5009813;28;24447;-76
2023/08/06 06:33:09;;;;;;;0.28;0.22;;;;;;;12.92;100.00;95029.69;5009304;28;24440;-76
2023/08/06 06:35:35;;;;;;;0.60;0.20;;;;;;;12.95;100.00;95029.44;4999818;28;24451;-77
2023/08/06 06:38:02;;;;;;;1.08;0.40;;;;;;;12.92;100.00;95029.69;5009414;28;24439;-77
2023/08/06 06:40:29;;;;;;;1.10;0.40;;;;;;;12.89;100.00;95026.53;5007446;28;24514;-75
2023/08/06 06:42:55;;;;;;;1.88;0.30;;;;;;;12.96;100.00;95028.50;5007899;28;24441;-75
2023/08/06 06:45:23;;;;;;;0.30;0.20;;;;;;;13.00;100.00;95029.88;5003650;28;24472;-75
2023/08/06 06:47:49;;;;;;;1.20;0.40;;;;;;;12.97;100.00;95024.09;5000653;28;25195;-75
2023/08/06 06:50:16;;;;;;;1.10;0.30;;;;;;;13.00;100.00;95024.69;5007949;28;24816;-75
2023/08/06 06:52:44;;;;;;;0.30;0.20;;;;;;;13.00;100.00;95029.06;5008155;28;22423;-75
2023/08/06 06:55:10;;;;;;;0.50;0.20;;;;;;;13.14;100.00;95031.31;5004056;28;24514;-75
2023/08/06 06:57:37;;;;;;;1.25;0.20;;;;;;;12.89;100.00;95019.56;5009188;28;24432;-77
2023/08/06 07:00:04;;;;;;;0.90;0.10;;;;;;;13.02;100.00;95027.16;5002950;28;24444;-77
2023/08/06 07:02:32;;;;;;;0.57;0.25;;;;;;;12.83;100.00;95027.88;5009544;28;24452;-77
2023/08/06 07:04:58;;;;;;;0.98;0.17;;;;;;;12.83;100.00;95033.91;5007283;28;24437;-77
2023/08/06 07:07:25;;;;;;;0.17;0.10;;;;;;;12.89;100.00;95029.13;5004841;28;24429;-78
2023/08/06 07:09:51;;;;;;;0.20;0.10;;;;;;;12.83;100.00;95030.50;5002386;28;24448;-75
2023/08/06 07:12:17;;;;;;;1.10;0.20;;;;;;;12.83;100.00;95033.09;5007075;28;24447;-75
2023/08/06 07:14:44;;;;;;;0.47;0.15;;;;;;;12.83;100.00;95033.09;5003494;28;24441;-75
2023/08/06 07:17:10;;;;;;;1.08;0.15;;;;;;;12.81;100.00;95032.38;5005593;28;25057;-75
2023/08/06 07:19:38;;;;;;;0.30;0.15;;;;;;;12.85;100.00;95038.97;5004610;28;24982;-75
2023/08/06 07:22:05;;;;;;;0.10;0.10;;;;;;;12.84;100.00;95038.13;5008711;28;25230;-75
2023/08/06 07:24:32;;;;;;;0.30;0.20;;;;;;;12.92;100.00;95052.28;5005134;28;24437;-75
2023/08/06 07:26:58;;;;;;;0.50;0.30;;;;;;;12.85;100.00;95049.34;5009092;28;24487;-76
2023/08/06 07:29:25;;;;;;;0.20;0.10;;;;;;;12.97;100.00;95050.09;5003694;28;24456;-75
2023/08/06 07:31:51;;;;;;;0.30;0.10;;;;;;;12.96;100.00;95049.28;5008584;28;24440;-75
2023/08/06 07:34:17;;;;;;;0.22;0.10;;;;;;;12.97;100.00;95048.31;5005402;28;24444;-75
2023/08/06 07:36:46;;;;;;;0.77;0.27;;;;;;;13.04;100.00;95039.06;5002744;28;25019;-75
2023/08/06 07:39:13;;;;;;;0.10;0.10;;;;;;;13.11;100.00;95048.94;5003941;28;24948;-75
2023/08/06 07:41:41;;;;;;;1.88;0.20;;;;;;;13.28;100.00;95051.81;5006733;28;24813;-75
2023/08/06 07:44:07;;;;;;;0.60;0.20;;;;;;;13.34;100.00;95060.03;5004299;28;24514;-76
2023/08/06 07:46:34;;;;;;;0.30;0.10;;;;;;;13.52;100.00;95063.66;5002291;28;24440;-75
2023/08/06 07:49:00;;;;;;;0.20;0.10;;;;;;;13.55;100.00;95060.81;5000264;28;24456;-76
2023/08/06 07:51:27;;;;;;;1.10;0.10;;;;;;;13.60;100.00;95056.03;5000816;28;24436;-76
2023/08/06 07:53:54;;;;;;;0.40;0.10;;;;;;;13.71;100.00;95055.91;4994845;28;24805;-75
2023/08/06 07:56:21;;;;;;;0.10;0.10;;;;;;;13.59;100.00;95058.75;4999236;28;24809;-76
2023/08/06 07:58:48;;;;;;;0.38;0.10;;;;;;;13.51;100.00;95059.44;5006026;28;24519;-75
2023/08/06 08:01:14;;;;;;;0.20;0.10;;;;;;;13.48;100.00;95065.72;5003253;28;24455;-76
2023/08/06 08:03:40;;;;;;;0.70;0.10;;;;;;;13.53;100.00;95068.75;5008868;28;24439;-75
2023/08/06 08:06:07;;;;;;;0.10;0.03;;;;;;;13.40;100.00;95067.31;5007405;28;24448;-76
2023/08/06 08:08:37;;;;;;;0.00;0.00;;;;;;;13.46;100.00;95061.59;5010266;28;24452;-76
2023/08/06 08:11:06;;;;;;;1.27;0.10;;;;;;;13.49;100.00;95079.53;5004437;28;24440;-76
2023/08/06 08:13:32;;;;;;;1.27;0.10;;;;;;;13.33;100.00;95072.22;5000889;28;24432;-76
2023/08/06 08:15:59;;;;;;;1.60;0.10;;;;;;;13.29;100.00;95068.22;5004980;28;24460;-76
2023/08/06 08:18:26;;;;;;;0.45;0.08;;;;;;;13.35;100.00;95059.91;5005601;28;24443;-76
2023/08/06 08:20:52;;;;;;;0.30;0.20;;;;;;;13.17;100.00;95059.66;5005895;28;25022;-76
2023/08/06 08:23:19;;;;;;;0.40;0.20;;;;;;;13.26;100.00;95064.09;5006878;28;24459;-77
2023/08/06 08:25:45;;;;;;;1.63;0.20;;;;;;;13.35;100.00;95062.53;5005352;28;24463;-76
2023/08/06 08:28:13;;;;;;;1.00;0.10;;;;;;;13.26;100.00;95058.91;5010301;28;24456;-76
2023/08/06 08:30:41;;;;;;;0.20;0.10;;;;;;;13.21;100.00;95066.25;5005536;28;24444;-76
2023/08/06 08:33:08;;;;;;;0.00;0.00;;;;;;;13.35;100.00;95064.28;5004200;28;24444;-76
2023/08/06 08:35:35;;;;;;;0.20;0.10;;;;;;;13.35;100.00;95062.53;5004421;28;24828;-76
2023/08/06 08:38:01;;;;;;;0.40;0.10;;;;;;;13.24;100.00;95058.22;5008940;28;24441;-77
2023/08/06 08:40:32;;;;;;;0.50;0.20;;;;;;;13.22;100.00;95062.69;5006911;28;24441;-77
2023/08/06 08:43:00;;;;;;;0.20;0.08;;;;;;;13.22;100.00;95060.09;5000670;28;25171;-77
2023/08/06 08:45:30;;;;;;;0.40;0.10;;;;;;;13.24;100.00;95060.00;5012235;28;24443;-77
2023/08/06 08:47:57;;;;;;;0.10;0.00;;;;;;;13.28;100.00;95058.78;5009727;28;24478;-76
2023/08/06 08:50:24;;;;;;;0.00;0.00;;;;;;;13.33;100.00;95061.81;5008320;28;24444;-76
2023/08/06 08:52:51;;;;;;;0.30;0.10;;;;;;;13.31;100.00;95066.31;5012067;28;24440;-76
2023/08/06 08:55:21;;;;;;;0.10;0.10;;;;;;;13.35;100.00;95064.28;5011814;28;24444;-77
2023/08/06 08:57:47;;;;;;;0.60;0.10;;;;;;;13.33;100.00;95067.00;5009937;28;24448;-77
2023/08/06 09:00:14;;;;;;;0.20;0.10;;;;;;;13.36;100.00;95068.53;5011999;28;24439;-76
2023/08/06 09:02:43;;;;;;;0.13;0.00;;;;;;;13.39;100.00;95073.50;5010373;28;24518;-77
2023/08/06 09:05:10;;;;;;;0.40;0.10;;;;;;;13.43;100.00;95067.88;5011873;28;24425;-77
2023/08/06 09:07:43;;;;;;;0.30;0.10;;;;;;;13.47;100.00;95077.06;5011973;28;24451;-77
2023/08/06 09:10:13;;;;;;;0.17;0.10;;;;;;;13.45;100.00;95073.78;5004701;28;24476;-77
2023/08/06 09:12:40;;;;;;;0.80;0.20;;;;;;;13.51;100.00;95075.03;5001024;28;24536;-78
2023/08/06 09:15:07;;;;;;;0.60;0.00;;;;;;;13.50;100.00;95078.59;5006538;28;24440;-77
2023/08/06 09:17:34;;;;;;;0.00;0.00;;;;;;;13.51;100.00;95077.63;5008846;28;24433;-78
2023/08/06 09:20:10;;;;;;;0.17;0.07;;;;;;;13.60;100.00;95079.44;5011130;28;24469;-77
2023/08/06 09:22:36;;;;;;;0.47;0.10;;;;;;;13.68;100.00;95065.75;5011021;28;24448;-77
2023/08/06 09:25:04;;;;;;;0.10;0.00;;;;;;;13.65;100.00;95077.28;5010045;28;24988;-77
2023/08/06 09:27:30;;;;;;;0.10;0.10;;;;;;;13.58;100.00;95091.78;5010041;28;24440;-77
2023/08/06 09:29:57;;;;;;;0.80;0.10;;;;;;;13.56;100.00;95084.06;5006927;28;24449;-77
2023/08/06 09:32:25;;;;;;;0.40;0.10;;;;;;;13.65;100.00;95092.91;5006826;28;24463;-77
2023/08/06 09:34:56;;;;;;;0.70;0.20;;;;;;;13.64;100.00;95090.41;5008722;28;24444;-77
2023/08/06 09:37:26;;;;;;;0.10;0.03;;;;;;;13.62;100.00;95087.94;5006793;28;24444;-77
2023/08/06 09:39:53;;;;;;;0.20;0.10;;;;;;;13.59;100.00;95085.59;5006574;28;24436;-77
2023/08/06 09:42:20;;;;;;;0.47;0.10;;;;;;;13.66;100.00;95088.50;5006898;28;25074;-77
2023/08/06 09:44:46;;;;;;;0.40;0.10;;;;;;;13.62;100.00;95095.75;5008616;28;25007;-77
2023/08/06 09:47:13;;;;;;;0.40;0.10;;;;;;;13.57;100.00;95090.09;5008788;28;24447;-77
2023/08/06 09:49:45;;;;;;;2.40;0.32;;;;;;;13.53;100.00;95099.13;5010771;28;24457;-77
2023/08/06 09:52:13;;;;;;;1.77;0.32;;;;;;;13.58;100.00;95101.34;4996794;28;24447;-77
2023/08/06 09:54:41;;;;;;;0.30;0.10;;;;;;;13.67;100.00;95095.34;5009825;28;24452;-77
2023/08/06 09:57:09;;;;;;;0.35;0.13;;;;;;;13.67;100.00;95103.16;5010082;28;24433;-77
2023/08/06 09:59:37;;;;;;;0.43;0.20;;;;;;;13.69;100.00;95096.88;5010166;28;24995;-78
2023/08/06 10:02:11;;;;;;;1.53;1.13;;;;;;;13.74;100.00;95106.88;5010495;28;25027;-77
2023/08/06 10:04:38;;;;;;;0.60;0.22;;;;;;;13.66;100.00;95111.94;5010537;28;24439;-77
2023/08/06 10:07:05;;;;;;;0.73;0.10;;;;;;;13.64;100.00;95112.03;5005211;28;24448;-77
2023/08/06 10:09:32;;;;;;;0.30;0.10;;;;;;;13.68;100.00;95118.66;5008300;28;24453;-77
2023/08/06 10:12:00;;;;;;;0.80;0.30;;;;;;;13.60;100.00;95118.47;5007434;28;24439;-77
2023/08/06 10:14:31;;;;;;;0.63;0.40;;;;;;;13.60;100.00;95128.88;5010197;28;24449;-77
2023/08/06 10:16:59;;;;;;;1.90;1.40;;;;;;;13.64;100.00;95126.84;5010266;28;24821;-77
2023/08/06 10:19:27;;;;;;;0.90;0.50;;;;;;;13.60;100.00;95131.47;5008769;28;24605;-77
2023/08/06 10:22:10;;;;;;;0.22;0.13;;;;;;;13.54;100.00;95127.63;5005042;28;24444;-77
2023/08/06 10:24:49;;;;;;;1.90;0.45;;;;;;;13.53;100.00;95131.19;5004520;28;24526;-76
2023/08/06 10:27:29;;;;;;;0.13;0.10;;;;;;;13.55;100.00;95124.06;5004812;28;24444;-77
2023/08/06 10:29:56;;;;;;;0.20;0.10;;;;;;;13.37;100.00;95125.63;5008315;28;24484;-77
2023/08/06 10:32:22;;;;;;;1.00;0.10;;;;;;;13.22;100.00;95132.91;5002581;28;25195;-77
2023/08/06 10:34:57;;;;;;;0.22;0.10;;;;;;;13.22;100.00;95132.06;4998314;28;24809;-77
2023/08/06 10:37:24;;;;;;;0.17;0.10;;;;;;;13.20;100.00;95129.63;5000529;28;25097;-77
2023/08/06 10:39:51;;;;;;;0.40;0.10;;;;;;;13.21;100.00;95139.06;5006351;28;24468;-77
2023/08/06 10:42:23;;;;;;;0.32;0.17;;;;;;;13.08;100.00;95136.63;4998894;28;24840;-77
2023/08/06 10:45:14;;;;;;;0.20;0.10;;;;;;;13.11;100.00;95142.53;5000711;28;24782;-77
2023/08/06 10:47:41;;;;;;;0.47;0.22;;;;;;;13.13;100.00;95159.69;4994108;28;24444;-76
2023/08/06 10:50:08;;;;;;;0.03;0.00;;;;;;;13.14;100.00;95158.72;5004904;28;24460;-77
2023/08/06 10:52:35;;;;;;;1.20;0.20;;;;;;;13.07;100.00;95158.38;5002515;28;24531;-77
2023/08/06 10:55:02;;;;;;;0.40;0.10;;;;;;;13.21;100.00;95159.03;5008855;28;24801;-78
2023/08/06 10:57:29;;;;;;;0.20;0.20;;;;;;;13.11;100.00;95177.16;5004844;28;25004;-77
2023/08/06 10:59:56;;;;;;;0.50;0.30;;;;;;;12.95;100.00;95176.78;5006321;28;24976;-76
2023/08/06 11:02:22;;;;;;;1.52;0.30;;;;;;;12.99;100.00;95183.38;5009521;28;24444;-77
2023/08/06 11:04:49;;;;;;;1.15;0.60;;;;;;;12.92;100.00;95192.63;5004478;28;24491;-77
2023/08/06 11:07:19;;;;;;;0.77;0.43;;;;;;;12.83;100.00;95187.22;5004212;28;24462;-77
2023/08/06 11:09:45;;;;;;;0.70;0.45;;;;;;;12.85;100.00;95187.09;5008757;28;25027;-76
2023/08/06 11:12:12;;;;;;;0.85;0.40;;;;;;;12.90;100.00;95191.91;5004543;28;24440;-76
2023/08/06 11:14:40;;;;;;;0.80;0.43;;;;;;;13.00;100.00;95198.00;5009143;28;24856;-77
2023/08/06 11:17:06;;;;;;;1.27;0.40;;;;;;;13.02;100.00;95199.56;5009658;28;24440;-75
2023/08/06 11:19:33;;;;;;;0.52;0.43;;;;;;;13.06;100.00;95202.72;5009765;28;24528;-77
2023/08/06 11:22:01;;;;;;;0.40;0.30;;;;;;;12.91;100.00;95202.19;5010764;28;24437;-77
2023/08/06 11:24:27;;;;;;;1.80;1.00;;;;;;;12.68;100.00;95211.00;5006405;28;24445;-77